createdAt,value
2023-07-12T00:02:02.686Z,99421.31
2023-07-12T00:04:29.750Z,99429.63
2023-07-12T00:06:56.346Z,99425.34
2023-07-12T00:09:22.922Z,99425.38
2023-07-12T00:11:49.904Z,99407.34
2023-07-12T00:14:16.594Z,99411.22
2023-07-12T00:16:43.270Z,99420.19
2023-07-12T00:19:16.287Z,99416.69
2023-07-12T00:21:43.089Z,99408.78
2023-07-12T00:24:10.558Z,99401.28
2023-07-12T00:26:38.077Z,99409.84
2023-07-12T00:29:06.166Z,99405.94
2023-07-12T00:31:33.493Z,99405.34
2023-07-12T00:34:02.070Z,99408.81
2023-07-12T00:36:30.078Z,99401.53
2023-07-12T00:38:57.617Z,99406.41
2023-07-12T00:41:47.924Z,99414.94
2023-07-12T00:44:17.652Z,99420.22
2023-07-12T00:46:49.060Z,99408.22
2023-07-12T00:49:16.001Z,99396.72
2023-07-12T00:52:01.473Z,99396.50
2023-07-12T00:54:47.500Z,99397.47
2023-07-12T00:57:14.256Z,99391.44
2023-07-12T00:59:41.581Z,99393.47
2023-07-12T01:02:09.071Z,99398.75
2023-07-12T01:04:41.801Z,99404.25
2023-07-12T01:07:08.425Z,99399.38
2023-07-12T01:09:35.275Z,99402.59
2023-07-12T01:12:02.532Z,99397.53
2023-07-12T01:14:29.183Z,99396.91
2023-07-12T01:17:01.446Z,99391.25
2023-07-12T01:19:28.707Z,99390.03
2023-07-12T01:21:55.957Z,99382.50
2023-07-12T01:24:23.526Z,99385.34
2023-07-12T01:26:51.837Z,99385.97
2023-07-12T01:29:18.782Z,99393.47
2023-07-12T01:31:46.052Z,99388.78
2023-07-12T01:34:13.412Z,99384.47
2023-07-12T01:36:40.178Z,99376.16
2023-07-12T01:39:07.061Z,99368.06
2023-07-12T01:41:34.324Z,99374.78
2023-07-12T01:44:00.962Z,99382.69
2023-07-12T01:46:30.408Z,99371.75
2023-07-12T01:48:57.697Z,99375.59
2023-07-12T01:51:27.015Z,99378.63
2023-07-12T01:53:53.693Z,99382.50
2023-07-12T01:56:20.353Z,99386.75
2023-07-12T01:58:47.028Z,99377.63
2023-07-12T02:01:13.889Z,99377.63
2023-07-12T02:03:40.744Z,99375.19
2023-07-12T02:06:07.432Z,99366.47
2023-07-12T02:08:34.146Z,99372.16
2023-07-12T02:11:00.843Z,99375.38
2023-07-12T02:13:27.589Z,99375.59
2023-07-12T02:15:54.266Z,99381.03
2023-07-12T02:18:21.436Z,99373.75
2023-07-12T02:20:49.144Z,99370.72
2023-07-12T02:23:15.950Z,99377.63
2023-07-12T02:25:42.923Z,99373.16
2023-07-12T02:28:10.260Z,99379.22
2023-07-12T02:30:37.865Z,99374.16
2023-07-12T02:33:04.720Z,99376.38
2023-07-12T02:35:32.653Z,99376.19
2023-07-12T02:38:00.139Z,99370.09
2023-07-12T02:40:27.884Z,99366.66
2023-07-12T02:42:54.955Z,99362.59
2023-07-12T02:45:21.708Z,99360.16
2023-07-12T02:47:48.490Z,99358.56
2023-07-12T02:50:15.197Z,99348.00
2023-07-12T02:52:41.850Z,99360.56
2023-07-12T02:55:08.622Z,99349.78
2023-07-12T02:57:35.276Z,99352.63
2023-07-12T03:00:04.100Z,99352.00
2023-07-12T03:02:32.040Z,99350.56
2023-07-12T03:04:58.845Z,99341.06
2023-07-12T03:07:25.572Z,99339.44
2023-07-12T03:09:57.475Z,99344.09
2023-07-12T03:12:24.197Z,99354.28
2023-07-12T03:14:51.833Z,99346.94
2023-07-12T03:17:18.554Z,99340.66
2023-07-12T03:19:45.249Z,99346.56
2023-07-12T03:22:11.924Z,99344.50
2023-07-12T03:24:38.595Z,99337.81
2023-07-12T03:27:05.271Z,99329.69
2023-07-12T03:29:31.917Z,99337.63
2023-07-12T03:31:58.628Z,99335.38
2023-07-12T03:34:25.461Z,99335.38
2023-07-12T03:36:52.148Z,99321.78
2023-07-12T03:39:18.700Z,99330.72
2023-07-12T03:41:45.305Z,99337.22
2023-07-12T03:44:11.914Z,99336.78
2023-07-12T03:46:39.102Z,99333.75
2023-07-12T03:49:05.734Z,99336.19
2023-07-12T03:51:32.342Z,99335.38
2023-07-12T03:53:59.342Z,99336.59
2023-07-12T03:56:26.026Z,99335.19
2023-07-12T03:58:52.696Z,99336.59
2023-07-12T04:01:19.715Z,99340.66
2023-07-12T04:03:47.842Z,99344.75
2023-07-12T04:06:14.997Z,99350.22
2023-07-12T04:08:41.730Z,99335.78
2023-07-12T04:11:08.911Z,99325.41
2023-07-12T04:13:35.840Z,99325.22
2023-07-12T04:16:03.132Z,99322.78
2023-07-12T04:18:30.155Z,99317.69
2023-07-12T04:21:00.400Z,99321.78
2023-07-12T04:23:27.813Z,99321.56
2023-07-12T04:26:01.629Z,99330.91
2023-07-12T04:28:28.389Z,99321.56
2023-07-12T04:30:55.297Z,99304.28
2023-07-12T04:33:22.365Z,99310.81
2023-07-12T04:35:48.907Z,99311.81
2023-07-12T04:38:15.483Z,99312.63
2023-07-12T04:40:42.012Z,99304.50
2023-07-12T04:43:08.821Z,99305.94
2023-07-12T04:45:35.556Z,99293.75
2023-07-12T04:48:02.207Z,99302.47
2023-07-12T04:50:28.874Z,99295.38
2023-07-12T04:52:55.510Z,99294.97
2023-07-12T04:55:24.194Z,99293.13
2023-07-12T04:57:50.840Z,99293.13
2023-07-12T05:00:18.207Z,99278.94
2023-07-12T05:02:45.054Z,99272.00
2023-07-12T05:05:13.169Z,99270.16
2023-07-12T05:07:40.377Z,99275.03
2023-07-12T05:10:07.589Z,99276.25
2023-07-12T05:12:35.901Z,99276.47
2023-07-12T05:15:04.105Z,99285.59
2023-07-12T05:17:31.487Z,99286.63
2023-07-12T05:19:58.538Z,99285.19
2023-07-12T05:22:25.532Z,99291.50
2023-07-12T05:24:52.814Z,99298.38
2023-07-12T05:27:19.504Z,99285.97
2023-07-12T05:29:46.165Z,99280.50
2023-07-12T05:32:14.173Z,99277.47
2023-07-12T05:34:40.992Z,99276.47
2023-07-12T05:37:07.751Z,99269.94
2023-07-12T05:39:34.492Z,99281.53
2023-07-12T05:42:01.229Z,99290.09
2023-07-12T05:44:27.864Z,99296.56
2023-07-12T05:46:54.798Z,99290.88
2023-07-12T05:49:21.653Z,99289.69
2023-07-12T05:51:48.381Z,99305.13
2023-07-12T05:54:14.927Z,99307.53
2023-07-12T05:56:41.612Z,99305.72
2023-07-12T05:59:08.218Z,99299.63
2023-07-12T06:01:34.810Z,99293.34
2023-07-12T06:04:01.467Z,99288.66
2023-07-12T06:06:29.002Z,99292.53
2023-07-12T06:08:55.647Z,99295.38
2023-07-12T06:11:23.211Z,99295.38
2023-07-12T06:13:51.331Z,99287.22
2023-07-12T06:16:17.980Z,99287.63
2023-07-12T06:18:44.811Z,99278.91
2023-07-12T06:21:11.886Z,99279.50
2023-07-12T06:23:38.750Z,99271.97
2023-07-12T06:26:07.082Z,99278.06
2023-07-12T06:28:33.866Z,99284.56
2023-07-12T06:31:02.227Z,99289.66
2023-07-12T06:33:31.192Z,99284.16
2023-07-12T06:35:58.929Z,99282.13
2023-07-12T06:38:25.558Z,99284.56
2023-07-12T06:40:52.261Z,99288.84
2023-07-12T06:43:19.099Z,99295.94
2023-07-12T06:45:46.680Z,99283.75
2023-07-12T06:48:14.395Z,99286.19
2023-07-12T06:50:41.765Z,99278.44
2023-07-12T06:53:08.852Z,99283.34
2023-07-12T06:55:36.619Z,99293.06
2023-07-12T06:58:03.463Z,99298.56
2023-07-12T07:00:30.323Z,99288.41
2023-07-12T07:03:00.028Z,99287.78
2023-07-12T07:05:27.324Z,99296.34
2023-07-12T07:07:55.131Z,99303.44
2023-07-12T07:10:22.201Z,99300.19
2023-07-12T07:12:50.592Z,99297.34
2023-07-12T07:15:18.639Z,99303.63
2023-07-12T07:17:48.998Z,99305.09
2023-07-12T07:20:16.123Z,99305.47
2023-07-12T07:22:45.692Z,99304.25
2023-07-12T07:25:17.262Z,99311.75
2023-07-12T07:27:48.112Z,99313.00
2023-07-12T07:30:15.083Z,99310.75
2023-07-12T07:32:41.803Z,99309.97
2023-07-12T07:35:08.777Z,99309.97
2023-07-12T07:37:35.460Z,99308.53
2023-07-12T07:40:02.190Z,99301.44
2023-07-12T07:42:29.030Z,99292.28
2023-07-12T07:44:55.700Z,99292.88
2023-07-12T07:47:22.453Z,99289.00
2023-07-12T07:49:49.245Z,99281.50
2023-07-12T07:52:16.042Z,99287.38
2023-07-12T07:54:42.700Z,99285.34
2023-07-12T07:57:09.567Z,99281.25
2023-07-12T07:59:36.232Z,99278.22
2023-07-12T08:02:02.952Z,99274.75
2023-07-12T08:04:31.252Z,99281.25
2023-07-12T08:06:57.972Z,99282.72
2023-07-12T08:09:24.628Z,99277.81
2023-07-12T08:11:51.372Z,99284.09
2023-07-12T08:14:19.529Z,99283.09
2023-07-12T08:16:47.065Z,99284.69
2023-07-12T08:19:18.217Z,99271.09
2023-07-12T08:21:45.769Z,99271.09
2023-07-12T08:24:12.486Z,99276.78
2023-07-12T08:26:40.371Z,98956.94
2023-07-12T08:29:10.363Z,99273.16
2023-07-12T08:31:37.095Z,99269.25
2023-07-12T08:34:03.744Z,99274.34
2023-07-12T08:36:30.399Z,99272.13
2023-07-12T08:38:57.151Z,99267.63
2023-07-12T08:41:26.031Z,99270.31
2023-07-12T08:43:53.372Z,99270.69
2023-07-12T08:46:22.123Z,99271.69
2023-07-12T08:48:58.606Z,99272.13
2023-07-12T08:51:33.284Z,99270.47
2023-07-12T08:54:01.116Z,99273.28
2023-07-12T08:56:30.791Z,99270.66
2023-07-12T08:58:57.500Z,99270.06
2023-07-12T09:01:43.667Z,99277.19
2023-07-12T09:04:16.402Z,99275.75
2023-07-12T09:06:43.053Z,99268.59
2023-07-12T09:09:10.351Z,99267.59
2023-07-12T09:11:37.086Z,99272.88
2023-07-12T09:14:03.811Z,99277.16
2023-07-12T09:16:35.191Z,99276.53
2023-07-12T09:19:12.894Z,99276.91
2023-07-12T09:21:40.008Z,99276.28
2023-07-12T09:24:13.915Z,99273.44
2023-07-12T09:26:40.812Z,99281.78
2023-07-12T09:29:07.386Z,99277.13
2023-07-12T09:31:35.769Z,99270.03
2023-07-12T09:34:06.173Z,99270.81
2023-07-12T09:36:37.316Z,99263.75
2023-07-12T09:39:05.884Z,99263.16
2023-07-12T09:41:32.895Z,99268.22
2023-07-12T09:44:00.771Z,99254.59
2023-07-12T09:46:27.391Z,98923.47
2023-07-12T09:49:02.639Z,99243.03
2023-07-12T09:51:29.817Z,99243.66
2023-07-12T09:54:00.017Z,99244.22
2023-07-12T09:56:33.478Z,99250.94
2023-07-12T09:59:09.066Z,99249.72
2023-07-12T10:01:55.247Z,99254.19
2023-07-12T10:04:34.640Z,99260.28
2023-07-12T10:07:04.994Z,99266.16
2023-07-12T10:09:34.483Z,99258.81
2023-07-12T10:12:33.713Z,99258.63
2023-07-12T10:15:00.597Z,99259.22
2023-07-12T10:17:36.077Z,99256.81
2023-07-12T10:20:04.070Z,99251.50
2023-07-12T10:22:35.364Z,99245.56
2023-07-12T10:25:06.137Z,99246.00
2023-07-12T10:27:36.271Z,99237.06
2023-07-12T10:30:05.499Z,99248.00
2023-07-12T10:32:37.693Z,99236.63
2023-07-12T10:35:06.861Z,99241.94
2023-07-12T10:37:33.636Z,99236.00
2023-07-12T10:40:00.754Z,99235.41
2023-07-12T10:42:31.681Z,99228.28
2023-07-12T10:44:59.351Z,99229.50
2023-07-12T10:47:30.046Z,99231.31
2023-07-12T10:49:59.858Z,99232.09
2023-07-12T10:52:31.521Z,99224.59
2023-07-12T10:55:05.735Z,99219.25
2023-07-12T10:57:39.935Z,99225.34
2023-07-12T11:00:21.810Z,99235.13
2023-07-12T11:02:48.573Z,99231.50
2023-07-12T11:05:33.993Z,99237.19
2023-07-12T11:08:03.202Z,99232.50
2023-07-12T11:10:35.523Z,99268.53
2023-07-12T11:13:09.309Z,99225.41
2023-07-12T11:15:49.543Z,99224.22
2023-07-12T11:18:25.752Z,99231.94
2023-07-12T11:21:06.093Z,99237.63
2023-07-12T11:23:39.396Z,99246.16
2023-07-12T11:26:21.711Z,99244.81
2023-07-12T11:28:48.352Z,99245.19
2023-07-12T11:31:15.040Z,99239.53
2023-07-12T11:33:46.677Z,99240.34
2023-07-12T11:36:20.153Z,99237.31
2023-07-12T11:38:47.858Z,99235.47
2023-07-12T11:41:16.074Z,99242.59
2023-07-12T11:43:42.956Z,99240.97
2023-07-12T11:46:19.885Z,99238.59
2023-07-12T11:48:50.821Z,99239.00
2023-07-12T11:51:19.955Z,99242.25
2023-07-12T11:53:53.446Z,99235.16
2023-07-12T11:56:20.284Z,99230.84
2023-07-12T11:58:47.242Z,99230.03
2023-07-12T12:01:15.894Z,99232.28
2023-07-12T12:03:43.238Z,99235.13
2023-07-12T12:06:13.663Z,99231.22
2023-07-12T12:08:45.559Z,99228.59
2023-07-12T12:11:12.760Z,99221.25
2023-07-12T12:13:42.726Z,99227.38
2023-07-12T12:16:23.186Z,99223.28
2023-07-12T12:18:52.238Z,99231.00
2023-07-12T12:21:20.481Z,99229.16
2023-07-12T12:23:52.332Z,99229.78
2023-07-12T12:26:25.946Z,99225.09
2023-07-12T12:28:58.923Z,99226.31
2023-07-12T12:31:27.024Z,99229.19
2023-07-12T12:34:04.394Z,99226.34
2023-07-12T12:36:32.753Z,99217.81
2023-07-12T12:39:04.806Z,99219.06
2023-07-12T12:41:40.116Z,99224.72
2023-07-12T12:44:09.001Z,99226.34
2023-07-12T12:47:03.181Z,99220.88
2023-07-12T12:54:25.920Z,98923.28
2023-07-12T13:07:01.831Z,99225.44
2023-07-12T13:19:29.816Z,99218.78
2023-07-12T13:21:57.053Z,99219.19
2023-07-12T13:24:23.835Z,99210.88
2023-07-12T13:26:50.461Z,99210.28
2023-07-12T13:29:17.705Z,99208.63
2023-07-12T13:31:45.540Z,99212.66
2023-07-12T13:34:14.679Z,99205.78
2023-07-12T13:36:46.428Z,99212.47
2023-07-12T13:46:44.522Z,99207.19
2023-07-12T13:49:12.686Z,99207.38
2023-07-12T13:51:39.474Z,99204.13
2023-07-12T13:54:06.152Z,99202.34
2023-07-12T13:56:46.536Z,99203.38
2023-07-12T14:01:46.749Z,99200.94
2023-07-12T14:06:57.097Z,99202.34
2023-07-12T14:09:25.714Z,98967.88
2023-07-12T14:11:52.546Z,99201.75
2023-07-12T14:14:19.205Z,99199.09
2023-07-12T14:16:45.939Z,99193.00
2023-07-12T14:19:12.634Z,99191.38
2023-07-12T14:21:39.518Z,99195.66
2023-07-12T14:24:06.461Z,99190.78
2023-07-12T14:26:33.357Z,99193.81
2023-07-12T14:29:03.327Z,99191.19
2023-07-12T14:31:32.921Z,99198.09
2023-07-12T14:33:59.905Z,99198.31
2023-07-12T14:36:27.605Z,99191.56
2023-07-12T14:38:54.251Z,99193.56
2023-07-12T14:41:23.290Z,98865.97
2023-07-12T14:43:49.977Z,99199.28
2023-07-12T14:46:18.166Z,99193.56
2023-07-12T14:48:45.520Z,99193.34
2023-07-12T14:51:24.280Z,99190.94
2023-07-12T14:53:51.925Z,99190.72
2023-07-12T14:56:21.072Z,99184.59
2023-07-12T14:58:48.108Z,99194.75
2023-07-12T15:01:30.236Z,99193.53
2023-07-12T15:03:59.714Z,99186.00
2023-07-12T15:06:26.855Z,99229.88
2023-07-12T15:08:57.663Z,99199.59
2023-07-12T15:11:27.284Z,99188.81
2023-07-12T15:13:54.226Z,99187.19
2023-07-12T15:16:21.969Z,99184.75
2023-07-12T15:18:49.430Z,99189.44
2023-07-12T15:21:21.046Z,98858.06
2023-07-12T15:24:01.361Z,99181.16
2023-07-12T15:26:43.582Z,99187.03
2023-07-12T15:29:10.220Z,99190.88
2023-07-12T15:31:38.946Z,99176.25
2023-07-12T15:34:06.929Z,99177.25
2023-07-12T15:36:33.775Z,99180.72
2023-07-12T15:39:00.520Z,99181.13
2023-07-12T15:41:29.221Z,99179.09
2023-07-12T15:43:56.895Z,99179.47
2023-07-12T15:46:27.174Z,99180.94
2023-07-12T15:48:54.632Z,99175.63
2023-07-12T15:51:25.681Z,99168.31
2023-07-12T15:53:54.244Z,99173.00
2023-07-12T15:56:22.942Z,99177.88
2023-07-12T15:58:50.143Z,99174.19
2023-07-12T16:01:19.235Z,99175.41
2023-07-12T16:03:46.849Z,99173.56
2023-07-12T16:06:14.220Z,99173.19
2023-07-12T16:08:41.385Z,99173.56
2023-07-12T16:11:25.397Z,99164.63
2023-07-12T16:16:23.670Z,99161.16
2023-07-12T16:18:50.412Z,99160.53
2023-07-12T16:21:22.103Z,99157.69
2023-07-12T16:23:50.050Z,99156.28
2023-07-12T16:26:18.503Z,99160.16
2023-07-12T16:28:45.337Z,99167.28
2023-07-12T16:31:23.967Z,99160.94
2023-07-12T16:33:51.211Z,99150.78
2023-07-12T16:36:17.889Z,99158.94
2023-07-12T16:38:44.599Z,99156.31
2023-07-12T16:41:20.429Z,99158.34
2023-07-12T16:43:47.763Z,99154.53
2023-07-12T16:46:14.483Z,99156.34
2023-07-12T16:48:44.094Z,98826.06
2023-07-12T16:51:22.555Z,99152.66
2023-07-12T16:53:49.486Z,99153.25
2023-07-12T16:56:18.299Z,99156.09
2023-07-12T16:58:46.035Z,99154.50
2023-07-12T17:01:24.723Z,99156.94
2023-07-12T17:03:53.100Z,99149.03
2023-07-12T17:06:21.584Z,99148.19
2023-07-12T17:08:48.279Z,99144.38
2023-07-12T17:11:16.022Z,99146.44
2023-07-12T17:13:44.038Z,99152.50
2023-07-12T17:16:12.664Z,99149.66
2023-07-12T17:18:39.821Z,99143.75
2023-07-12T17:21:11.233Z,99141.31
2023-07-12T17:23:43.541Z,99136.84
2023-07-12T17:26:21.320Z,99142.13
2023-07-12T17:28:48.865Z,99144.75
2023-07-12T17:31:22.486Z,99133.75
2023-07-12T17:33:49.529Z,99141.47
2023-07-12T17:36:17.680Z,99136.38
2023-07-12T17:38:45.164Z,99140.03
2023-07-12T17:41:17.598Z,99143.69
2023-07-12T17:43:44.279Z,99132.94
2023-07-12T17:46:12.127Z,99124.81
2023-07-12T17:48:40.276Z,99122.16
2023-07-12T17:51:12.455Z,99130.28
2023-07-12T17:53:40.144Z,99127.00
2023-07-12T17:56:11.034Z,99133.09
2023-07-12T17:58:37.892Z,99125.16
2023-07-12T18:01:11.507Z,98880.28
2023-07-12T18:03:38.459Z,99122.09
2023-07-12T18:06:05.182Z,99120.06
2023-07-12T18:08:31.908Z,99132.84
2023-07-12T18:10:59.544Z,99125.50
2023-07-12T18:13:27.689Z,99128.97
2023-07-12T18:15:54.684Z,99115.53
2023-07-12T18:18:21.538Z,99118.59
2023-07-12T18:20:49.683Z,99123.88
2023-07-12T18:23:17.592Z,99120.19
2023-07-12T18:25:44.951Z,99121.03
2023-07-12T18:28:12.138Z,99115.72
2023-07-12T18:30:40.135Z,99113.69
2023-07-12T18:33:17.938Z,99117.34
2023-07-12T18:35:44.868Z,99118.97
2023-07-12T18:38:11.495Z,99117.13
2023-07-12T18:40:38.678Z,99116.13
2023-07-12T18:43:10.194Z,99113.25
2023-07-12T18:45:37.343Z,99111.63
2023-07-12T18:48:04.072Z,99118.75
2023-07-12T18:50:31.618Z,99110.81
2023-07-12T18:52:59.846Z,99112.22
2023-07-12T18:55:26.530Z,99110.41
2023-07-12T18:57:55.864Z,99115.06
2023-07-12T19:00:23.251Z,99105.38
2023-07-12T19:02:50.016Z,99108.47
2023-07-12T19:05:19.018Z,99108.50
2023-07-12T19:07:45.645Z,99103.59
2023-07-12T19:10:15.197Z,99101.38
2023-07-12T19:12:42.261Z,99107.88
2023-07-12T19:15:17.395Z,99101.38
2023-07-12T19:17:44.784Z,99107.13
2023-07-12T19:20:11.937Z,99102.09
2023-07-12T19:22:38.880Z,99102.31
2023-07-12T19:25:06.141Z,99106.19
2023-07-12T19:27:42.903Z,99109.25
2023-07-12T19:30:17.207Z,99102.88
2023-07-12T19:32:44.584Z,99098.41
2023-07-12T19:35:20.387Z,99103.03
2023-07-12T19:37:47.424Z,99110.31
2023-07-12T19:40:14.214Z,99107.84
2023-07-12T19:42:43.636Z,99106.63
2023-07-12T19:45:23.308Z,99105.63
2023-07-12T19:47:50.667Z,99100.94
2023-07-12T19:50:17.621Z,99111.28
2023-07-12T19:52:44.292Z,99108.44
2023-07-12T19:55:18.492Z,99107.81
2023-07-12T19:57:45.195Z,99100.50
2023-07-12T20:00:12.391Z,99106.38
2023-07-12T20:02:42.765Z,99105.78
2023-07-12T20:05:09.964Z,99107.41
2023-07-12T20:07:36.664Z,99102.72
2023-07-12T20:10:03.473Z,99102.78
2023-07-12T20:12:30.261Z,99101.13
2023-07-12T20:14:57.422Z,99104.00
2023-07-12T20:17:24.337Z,99117.00
2023-07-12T20:19:51.138Z,99115.78
2023-07-12T20:22:17.902Z,99118.03
2023-07-12T20:24:44.618Z,99111.97
2023-07-12T20:27:11.836Z,99111.16
2023-07-12T20:29:38.519Z,99109.53
2023-07-12T20:32:05.884Z,99112.38
2023-07-12T20:34:33.950Z,99107.31
2023-07-12T20:37:02.132Z,99099.03
2023-07-12T20:39:29.076Z,99104.72
2023-07-12T20:41:56.216Z,99102.88
2023-07-12T20:44:23.252Z,99109.81
2023-07-12T20:46:50.273Z,99115.69
2023-07-12T20:49:17.327Z,99106.38
2023-07-12T20:51:44.040Z,99112.44
2023-07-12T20:54:12.351Z,99115.88
2023-07-12T20:56:40.775Z,99109.00
2023-07-12T20:59:08.403Z,99107.00
2023-07-12T21:01:35.471Z,99103.16
2023-07-12T21:04:02.585Z,99097.88
2023-07-12T21:06:30.164Z,99098.69
2023-07-12T21:08:57.480Z,99098.75
2023-07-12T21:11:24.776Z,99097.16
2023-07-12T21:13:52.226Z,99100.63
2023-07-12T21:16:19.873Z,99096.22
2023-07-12T21:18:48.704Z,99094.78
2023-07-12T21:21:16.799Z,99098.44
2023-07-12T21:23:44.245Z,99104.28
2023-07-12T21:26:12.276Z,99112.78
2023-07-12T21:28:40.355Z,99104.47
2023-07-12T21:31:14.032Z,99102.44
2023-07-12T21:33:41.070Z,99107.06
2023-07-12T21:36:08.350Z,99107.66
2023-07-12T21:38:36.027Z,99106.22
2023-07-12T21:41:04.321Z,99114.13
2023-07-12T21:43:31.940Z,99112.31
2023-07-12T21:45:58.717Z,99109.28
2023-07-12T21:48:25.981Z,99108.72
2023-07-12T21:50:53.833Z,99106.91
2023-07-12T21:53:21.330Z,99105.88
2023-07-12T21:55:49.455Z,99114.78
2023-07-12T21:58:17.578Z,99111.72
2023-07-12T22:00:48.539Z,99109.69
2023-07-12T22:03:16.404Z,99110.28
2023-07-12T22:05:44.878Z,99107.44
2023-07-12T22:08:12.503Z,99107.44
2023-07-12T22:10:39.508Z,99114.72
2023-07-12T22:13:30.987Z,99107.19
2023-07-12T22:15:57.592Z,99111.22
2023-07-12T22:18:28.518Z,99114.50
2023-07-12T22:21:04.841Z,99107.19
2023-07-12T22:23:31.505Z,99105.63
2023-07-12T22:25:58.336Z,99110.94
2023-07-12T22:28:25.007Z,99105.31
2023-07-12T22:30:51.826Z,99097.59
2023-07-12T22:33:18.427Z,99104.25
2023-07-12T22:35:45.062Z,99106.66
2023-07-12T22:38:11.690Z,98780.69
2023-07-12T22:40:38.307Z,99103.38
2023-07-12T22:43:04.981Z,99101.13
2023-07-12T22:45:31.944Z,99101.56
2023-07-12T22:48:00.526Z,99104.88
2023-07-12T22:50:27.562Z,99095.13
2023-07-12T22:52:54.175Z,99092.88
2023-07-12T22:55:20.951Z,99094.91
2023-07-12T22:57:47.592Z,99085.31
2023-07-12T23:00:15.581Z,99089.19
2023-07-12T23:02:42.382Z,99085.16
2023-07-12T23:05:10.907Z,99088.19
2023-07-12T23:07:37.634Z,99097.34
2023-07-12T23:10:04.459Z,99095.28
2023-07-12T23:12:32.051Z,99098.97
2023-07-12T23:14:58.949Z,99098.38
2023-07-12T23:17:25.861Z,99094.94
2023-07-12T23:19:52.615Z,99094.31
2023-07-12T23:22:19.641Z,99094.75
2023-07-12T23:24:47.459Z,99099.19
2023-07-12T23:27:14.377Z,99094.94
2023-07-12T23:29:44.344Z,99097.81
2023-07-12T23:32:13.145Z,99095.97
2023-07-12T23:34:39.741Z,99091.91
2023-07-12T23:37:09.378Z,99089.28
2023-07-12T23:39:37.041Z,99086.88
2023-07-12T23:42:03.973Z,99086.66
2023-07-12T23:44:31.980Z,99087.88
2023-07-12T23:46:59.031Z,99089.88
2023-07-12T23:49:27.651Z,99087.41
2023-07-12T23:51:57.863Z,99080.47
2023-07-12T23:54:24.849Z,99081.50
2023-07-12T23:56:52.549Z,99080.88
2023-07-12T23:59:19.806Z,99075.78
